createdAt,value
2023-11-12T00:03:09.052Z,28.67
2023-11-12T00:08:08.179Z,28.21
2023-11-12T00:13:08.456Z,28.19
2023-11-12T00:18:06.823Z,28.40
2023-11-12T00:23:06.967Z,28.19
2023-11-12T00:28:05.263Z,27.77
2023-11-12T00:33:04.692Z,27.69
2023-11-12T00:38:05.813Z,27.59
2023-11-12T00:43:03.162Z,28.34
2023-11-12T00:48:03.302Z,28.52
2023-11-12T00:53:01.463Z,27.43
2023-11-12T00:58:00.616Z,27.02
2023-11-12T01:02:59.788Z,26.52
2023-11-12T01:08:00.973Z,26.44
2023-11-12T01:12:59.163Z,25.88
2023-11-12T01:17:57.285Z,25.52
2023-11-12T01:22:56.607Z,25.33
2023-11-12T01:27:56.944Z,25.08
2023-11-12T01:32:56.250Z,24.71
2023-11-12T01:37:56.613Z,24.50
2023-11-12T01:42:52.718Z,23.95
2023-11-12T01:47:54.109Z,23.76
2023-11-12T01:52:52.241Z,23.35
2023-11-12T01:57:51.598Z,22.85
2023-11-12T02:02:50.772Z,22.70
2023-11-12T02:07:49.967Z,22.28
2023-11-12T02:12:49.081Z,22.09
2023-11-12T02:17:49.443Z,21.98
2023-11-12T02:22:49.597Z,21.65
2023-11-12T02:27:47.738Z,21.53
2023-11-12T02:32:45.910Z,21.27
2023-11-12T02:37:46.049Z,21.04
2023-11-12T02:42:48.180Z,20.88
2023-11-12T02:47:43.535Z,20.82
2023-11-12T02:52:42.676Z,20.72
2023-11-12T02:57:42.842Z,20.43
2023-11-12T03:02:41.159Z,20.28
2023-11-12T03:07:42.462Z,20.20
2023-11-12T03:12:40.869Z,20.06
2023-11-12T03:17:38.012Z,19.83
2023-11-12T03:22:38.185Z,19.65
2023-11-12T03:27:38.392Z,19.61
2023-11-12T03:32:36.581Z,19.55
2023-11-12T03:37:35.925Z,19.62
2023-11-12T03:42:35.160Z,19.43
2023-11-12T03:47:35.359Z,19.31
2023-11-12T03:52:33.434Z,19.14
2023-11-12T03:57:34.789Z,19.02
2023-11-12T04:02:33.175Z,18.95
2023-11-12T04:07:32.317Z,19.04
2023-11-12T04:12:31.495Z,18.87
2023-11-12T04:17:29.746Z,18.82
2023-11-12T04:22:28.871Z,18.87
2023-11-12T04:27:29.170Z,18.75
2023-11-12T04:32:28.378Z,18.69
2023-11-12T04:37:26.757Z,18.63
2023-11-12T04:42:27.117Z,18.67
2023-11-12T04:47:25.220Z,18.65
2023-11-12T04:52:24.522Z,18.60
2023-11-12T04:57:25.849Z,18.55
2023-11-12T05:02:23.112Z,18.50
2023-11-12T05:07:23.342Z,18.51
2023-11-12T05:12:21.721Z,18.51
2023-11-12T05:17:21.760Z,18.48
2023-11-12T05:22:21.029Z,18.23
2023-11-12T05:27:20.349Z,18.33
2023-11-12T05:32:18.567Z,18.25
2023-11-12T05:37:17.751Z,18.25
2023-11-12T05:42:17.000Z,18.14
2023-11-12T05:47:16.207Z,18.10
2023-11-12T05:52:15.457Z,18.15
2023-11-12T05:57:15.745Z,18.11
2023-11-12T06:02:13.956Z,18.05
2023-11-12T06:07:14.215Z,18.17
2023-11-12T06:12:12.494Z,17.79
2023-11-12T06:17:11.694Z,18.08
2023-11-12T06:22:10.926Z,18.10
2023-11-12T06:27:11.169Z,17.52
2023-11-12T06:32:09.387Z,17.08
2023-11-12T06:37:08.638Z,17.11
2023-11-12T06:42:07.882Z,17.07
2023-11-12T06:47:07.129Z,16.91
2023-11-12T06:52:07.402Z,17.01
2023-11-12T06:57:05.646Z,16.63
2023-11-12T07:02:04.886Z,16.53
2023-11-12T07:07:10.184Z,16.61
2023-11-12T07:12:03.464Z,16.98
2023-11-12T07:17:02.794Z,16.82
2023-11-12T07:22:04.092Z,16.97
2023-11-12T07:27:01.337Z,16.94
2023-11-12T07:32:00.607Z,16.89
2023-11-12T07:37:01.896Z,16.60
2023-11-12T07:41:59.141Z,16.38
2023-11-12T07:46:59.431Z,16.12
2023-11-12T07:51:57.676Z,16.34
2023-11-12T07:56:56.910Z,16.56
2023-11-12T08:01:56.456Z,16.68
2023-11-12T08:06:56.308Z,16.71
2023-11-12T08:11:55.618Z,16.70
2023-11-12T08:16:54.874Z,16.67
2023-11-12T08:21:54.215Z,16.79
2023-11-12T08:26:53.486Z,17.04
2023-11-12T08:31:52.802Z,16.91
2023-11-12T08:36:51.254Z,16.85
2023-11-12T08:41:51.313Z,16.75
2023-11-12T08:46:52.428Z,16.56
2023-11-12T08:51:49.783Z,16.60
2023-11-12T08:56:49.024Z,16.73
2023-11-12T09:01:47.268Z,16.75
2023-11-12T09:06:47.570Z,16.88
2023-11-12T09:11:46.762Z,16.68
2023-11-12T09:16:45.137Z,16.58
2023-11-12T09:21:44.282Z,16.46
2023-11-12T09:26:43.543Z,16.85
2023-11-12T09:31:42.815Z,16.91
2023-11-12T09:36:43.147Z,16.88
2023-11-12T09:41:41.417Z,16.85
2023-11-12T09:46:41.759Z,17.26
2023-11-12T09:51:40.919Z,20.28
2023-11-12T09:56:40.048Z,20.38
2023-11-12T10:01:41.206Z,21.62
2023-11-12T10:06:37.547Z,22.36
2023-11-12T10:11:39.674Z,23.25
2023-11-12T10:16:37.056Z,25.00
2023-11-12T10:21:35.228Z,24.53
2023-11-12T10:26:36.355Z,24.85
2023-11-12T10:31:35.685Z,25.58
2023-11-12T10:36:34.015Z,25.43
2023-11-12T10:41:32.321Z,26.12
2023-11-12T10:46:31.678Z,26.39
2023-11-12T10:51:31.877Z,26.52
2023-11-12T10:56:30.990Z,26.67
2023-11-12T11:01:29.319Z,27.29
2023-11-12T11:06:28.670Z,27.54
2023-11-12T11:11:28.816Z,27.22
2023-11-12T11:16:27.193Z,27.18
2023-11-12T11:21:26.279Z,27.47
2023-11-12T11:26:26.620Z,27.09
2023-11-12T11:31:24.954Z,26.89
2023-11-12T11:36:25.336Z,27.40
2023-11-12T11:41:22.397Z,27.70
2023-11-12T11:46:23.749Z,27.65
2023-11-12T11:51:23.077Z,27.79
2023-11-12T11:56:21.374Z,27.43
2023-11-12T12:01:20.680Z,27.13
2023-11-12T12:06:20.062Z,27.97
2023-11-12T12:11:20.189Z,27.72
2023-11-12T12:16:18.497Z,27.12
2023-11-12T12:21:16.870Z,26.58
2023-11-12T12:26:18.002Z,26.72
2023-11-12T12:31:16.385Z,27.25
2023-11-12T12:36:16.523Z,27.47
2023-11-12T12:41:15.667Z,28.19
2023-11-12T12:46:14.013Z,27.82
2023-11-12T12:51:14.151Z,27.97
2023-11-12T12:56:13.277Z,27.54
2023-11-12T13:01:11.648Z,26.75
2023-11-12T13:06:10.793Z,26.36
2023-11-12T13:11:10.939Z,25.95
2023-11-12T13:16:11.766Z,25.50
2023-11-12T13:21:08.389Z,26.67
2023-11-12T13:26:08.725Z,27.25
2023-11-12T13:31:08.933Z,27.03
2023-11-12T13:36:07.053Z,26.88
2023-11-12T13:41:05.357Z,27.36
2023-11-12T13:46:04.733Z,27.28
2023-11-12T13:51:04.844Z,26.63
2023-11-12T13:56:03.153Z,26.10
2023-11-12T14:01:03.505Z,26.55
2023-11-12T14:06:02.675Z,27.00
2023-11-12T14:11:00.007Z,27.46
2023-11-12T14:16:00.424Z,27.66
2023-11-12T14:21:02.594Z,27.97
2023-11-12T14:25:58.681Z,27.96
2023-11-12T14:30:59.031Z,27.92
2023-11-12T14:35:58.314Z,27.60
2023-11-12T14:40:56.655Z,28.29
2023-11-12T14:45:56.882Z,28.92
2023-11-12T14:50:55.025Z,29.11
2023-11-12T14:55:55.262Z,29.61
2023-11-12T15:00:53.411Z,29.83
2023-11-12T15:05:53.525Z,29.97
2023-11-12T15:10:53.096Z,30.00
2023-11-12T15:15:51.227Z,29.39
2023-11-12T15:20:50.543Z,29.28
2023-11-12T15:25:50.732Z,29.33
2023-11-12T15:30:50.003Z,29.46
2023-11-12T15:35:48.136Z,29.87
2023-11-12T15:40:47.473Z,28.68
2023-11-12T15:45:46.979Z,28.61
2023-11-12T15:50:47.139Z,28.24
2023-11-12T15:55:46.412Z,27.78
2023-11-12T16:00:44.680Z,27.92
2023-11-12T16:05:43.824Z,28.43
2023-11-12T16:10:44.257Z,29.02
2023-11-12T16:15:42.405Z,29.09
2023-11-12T16:20:41.833Z,28.61
2023-11-12T16:25:40.958Z,28.92
2023-11-12T16:30:41.515Z,29.53
2023-11-12T16:35:39.738Z,29.68
2023-11-12T16:40:58.103Z,29.85
2023-11-12T16:45:39.108Z,29.53
2023-11-12T16:50:37.489Z,29.41
2023-11-12T16:55:55.790Z,29.82
2023-11-12T17:00:55.104Z,29.57
2023-11-12T17:05:54.285Z,29.41
2023-11-12T17:10:35.491Z,28.86
2023-11-12T17:15:33.997Z,28.30
2023-11-12T17:20:33.962Z,27.82
2023-11-12T17:25:34.221Z,27.62
2023-11-12T17:30:33.486Z,28.22
2023-11-12T17:35:32.661Z,28.70
2023-11-12T17:40:29.985Z,28.68
2023-11-12T17:45:31.215Z,29.05
2023-11-12T17:50:28.354Z,29.15
2023-11-12T17:55:28.702Z,29.57
2023-11-12T18:00:26.826Z,29.34
2023-11-12T18:05:26.293Z,29.45
2023-11-12T18:10:25.399Z,29.83
2023-11-12T18:15:25.589Z,29.86
2023-11-12T18:20:23.736Z,29.78
2023-11-12T18:25:21.988Z,29.86
2023-11-12T18:30:23.225Z,29.92
2023-11-12T18:35:21.471Z,29.83
2023-11-12T18:40:21.883Z,29.37
2023-11-12T18:45:21.024Z,28.98
2023-11-12T18:50:18.166Z,29.31
2023-11-12T18:55:18.338Z,29.41
2023-11-12T19:00:20.351Z,29.05
2023-11-12T19:05:17.735Z,28.85
2023-11-12T19:10:15.986Z,29.26
2023-11-12T19:15:19.013Z,29.53
2023-11-12T19:20:15.576Z,29.68
2023-11-12T19:25:14.608Z,29.70
2023-11-12T19:30:15.674Z,29.57
2023-11-12T19:35:14.161Z,29.67
2023-11-12T19:40:12.412Z,29.82
2023-11-12T19:45:12.441Z,30.04
2023-11-12T19:50:10.532Z,30.01
2023-11-12T19:55:09.580Z,30.13
2023-11-12T20:00:09.118Z,30.02
2023-11-12T20:05:06.444Z,29.98
2023-11-12T20:10:07.714Z,29.65
2023-11-12T20:15:07.866Z,29.31
2023-11-12T20:20:06.088Z,29.43
2023-11-12T20:25:04.266Z,29.46
2023-11-12T20:30:03.346Z,29.06
2023-11-12T20:35:02.597Z,28.81
2023-11-12T20:40:01.908Z,28.61
2023-11-12T20:45:00.973Z,28.58
2023-11-12T20:50:01.288Z,29.19
2023-11-12T20:54:59.651Z,29.94
2023-11-12T20:59:57.730Z,30.47
2023-11-12T21:05:00.458Z,30.01
2023-11-12T21:09:59.138Z,29.80
2023-11-12T21:14:57.726Z,25.18
2023-11-12T21:19:56.036Z,21.67
2023-11-12T21:24:55.424Z,20.58
2023-11-12T21:29:53.574Z,20.95
2023-11-12T21:34:54.708Z,22.12
2023-11-12T21:39:53.011Z,24.32
2023-11-12T21:44:51.378Z,24.06
2023-11-12T21:49:50.492Z,22.39
2023-11-12T21:54:50.867Z,19.68
2023-11-12T21:59:49.062Z,19.84
2023-11-12T22:04:48.366Z,22.62
2023-11-12T22:09:49.768Z,22.67
2023-11-12T22:14:46.864Z,25.02
2023-11-12T22:19:46.198Z,24.60
2023-11-12T22:24:46.540Z,24.98
2023-11-12T22:29:44.850Z,25.17
2023-11-12T22:34:44.193Z,26.70
2023-11-12T22:39:43.640Z,26.70
2023-11-12T22:44:42.761Z,26.30
2023-11-12T22:49:42.914Z,26.33
2023-11-12T22:54:42.091Z,26.76
2023-11-12T22:59:40.230Z,25.52
2023-11-12T23:04:39.592Z,24.88
2023-11-12T23:09:39.745Z,25.55
2023-11-12T23:14:39.068Z,26.45
2023-11-12T23:19:37.368Z,27.27
2023-11-12T23:24:37.708Z,25.25
2023-11-12T23:29:35.801Z,25.64
2023-11-12T23:34:37.255Z,24.43
2023-11-12T23:39:35.373Z,24.21
2023-11-12T23:44:33.546Z,24.76
2023-11-12T23:49:32.659Z,26.50
2023-11-12T23:54:32.038Z,26.02
2023-11-12T23:59:31.145Z,26.69
